Time;durP1;ratioP1;P1;durP2;ratioP2;P2;SDS_P1;SDS_P2;PMS_P1;PMS_P2;Temp;Humidity;BMP_temperature;BMP_pressure;BME280_temperature;BME280_humidity;BME280_pressure;Samples;Min_cycle;Max_cycle;Signal;HPM_P1;HPM_P2
2022/11/13 00:01:45;;;;;;;14.32;9.50;;;;;;;21.69;58.80;101962.75;20979233;28;20071;-76
2022/11/13 00:11:45;;;;;;;12.70;9.52;;;;;;;21.66;58.70;101949.72;20991237;28;20041;-76
2022/11/13 00:21:46;;;;;;;12.38;9.35;;;;;;;21.66;58.82;101959.44;20968857;28;20103;-76
2022/11/13 00:31:46;;;;;;;13.57;9.80;;;;;;;21.62;58.97;101955.25;20976791;28;20399;-76
2022/11/13 00:41:46;;;;;;;13.25;10.13;;;;;;;21.61;58.92;101959.69;20990152;28;20128;-76
2022/11/13 00:51:47;;;;;;;15.00;9.98;;;;;;;21.59;58.53;101953.63;21004653;28;20565;-76
2022/11/13 01:01:47;;;;;;;13.13;9.15;;;;;;;21.60;58.81;101950.06;20991694;28;20097;-76
2022/11/13 01:11:47;;;;;;;13.30;10.02;;;;;;;21.56;58.67;101945.88;21001954;28;20048;-76
2022/11/13 01:21:48;;;;;;;12.85;9.40;;;;;;;21.56;58.58;101945.88;21008527;28;20105;-77
2022/11/13 01:31:48;;;;;;;16.35;10.30;;;;;;;21.54;58.21;101935.41;21001556;28;20508;-77
2022/11/13 01:41:48;;;;;;;11.23;9.07;;;;;;;21.50;58.38;101920.69;21009419;28;20085;-76
2022/11/13 01:51:59;;;;;;;12.57;8.85;;;;;;;21.53;58.27;101917.03;21002547;28;20046;-76
2022/11/13 02:02:01;;;;;;;13.18;9.48;;;;;;;21.48;58.53;101903.28;20992113;28;20044;-76
2022/11/13 02:12:04;;;;;;;11.45;9.02;;;;;;;21.47;58.83;101907.69;20992898;28;20047;-75
2022/11/13 02:22:30;;;;;;;11.02;8.77;;;;;;;21.47;58.08;101906.84;21001924;28;20082;-76
2022/11/13 02:32:31;;;;;;;12.00;9.07;;;;;;;21.44;58.15;101900.78;20990836;28;20043;-76
2022/11/13 02:42:31;;;;;;;11.93;9.15;;;;;;;21.43;58.09;101907.03;21015424;28;20044;-76
2022/11/13 02:52:32;;;;;;;12.38;9.40;;;;;;;21.43;58.31;101895.59;21006217;28;20044;-76
2022/11/13 03:02:32;;;;;;;11.43;8.95;;;;;;;21.40;58.20;101890.53;21010415;28;20040;-76
2022/11/13 03:12:33;;;;;;;12.95;8.63;;;;;;;21.39;58.08;101880.91;20992127;28;20054;-76
2022/11/13 03:22:33;;;;;;;10.13;8.45;;;;;;;21.39;58.29;101883.53;20977399;28;20044;-76
2022/11/13 03:32:33;;;;;;;11.52;8.20;;;;;;;21.38;58.20;101895.84;20981100;28;20045;-76
2022/11/13 03:42:35;;;;;;;11.65;8.98;;;;;;;21.36;58.01;101888.97;20982429;28;20036;-76
2022/11/13 03:52:35;;;;;;;10.35;7.88;;;;;;;21.35;58.21;101884.63;20984224;28;20467;-76
2022/11/13 04:02:35;;;;;;;11.32;8.35;;;;;;;21.31;58.00;101889.22;20991207;28;20049;-76
2022/11/13 04:12:36;;;;;;;9.88;8.10;;;;;;;21.33;58.00;101892.63;20985148;28;20407;-76
2022/11/13 04:22:36;;;;;;;10.18;8.43;;;;;;;21.30;57.94;101894.56;20995861;28;20388;-76
2022/11/13 04:32:36;;;;;;;9.27;7.72;;;;;;;21.26;58.62;101889.50;21006762;28;20433;-75
2022/11/13 04:42:49;;;;;;;9.93;7.85;;;;;;;21.25;58.05;101879.00;20986255;28;20094;-76
2022/11/13 04:52:49;;;;;;;;;;;;;;;21.25;58.20;101879.88;21007401;28;20121;-75
2022/11/13 05:02:50;;;;;;;8.98;7.15;;;;;;;21.23;58.20;101884.38;21011797;28;20849;-76
2022/11/13 05:12:50;;;;;;;8.63;7.28;;;;;;;21.26;58.63;101889.50;21005683;28;20052;-75
2022/11/13 05:22:50;;;;;;;10.40;8.18;;;;;;;21.34;58.18;101891.69;21000959;28;20118;-75
2022/11/13 05:32:51;;;;;;;10.50;7.88;;;;;;;21.40;58.69;101879.97;21001035;28;20135;-75
2022/11/13 05:42:55;;;;;;;14.38;7.78;;;;;;;21.47;58.31;101881.34;20998535;28;20438;-77
2022/11/13 05:52:55;;;;;;;8.93;7.07;;;;;;;21.50;57.97;101875.06;20998219;27;20042;-76
2022/11/13 06:02:55;;;;;;;8.57;6.95;;;;;;;21.58;58.73;101859.69;20978196;28;20479;-75
2022/11/13 06:12:56;;;;;;;9.43;7.30;;;;;;;21.66;58.98;101870.66;20975742;28;20575;-76
2022/11/13 06:22:56;;;;;;;9.32;7.03;;;;;;;21.71;58.43;101879.13;20998523;28;20060;-76
2022/11/13 06:32:57;;;;;;;8.07;6.93;;;;;;;21.76;58.41;101870.97;20985020;28;20040;-76
2022/11/13 06:42:57;;;;;;;11.07;8.73;;;;;;;21.79;58.90;101870.81;20980468;28;20347;-76
2022/11/13 06:52:57;;;;;;;11.48;9.30;;;;;;;21.83;58.54;101882.88;20974919;28;20420;-76
2022/11/13 07:02:58;;;;;;;13.75;9.70;;;;;;;21.86;58.71;101892.41;20995112;27;20074;-77
2022/11/13 07:12:59;;;;;;;18.92;11.60;;;;;;;21.91;58.77;101904.41;20987338;28;20040;-77
2022/11/13 07:23:02;;;;;;;19.40;16.05;;;;;;;22.00;61.23;101908.31;20993609;28;20086;-77
2022/11/13 07:33:03;;;;;;;22.33;16.88;;;;;;;22.05;62.36;101914.16;20969108;28;20036;-78
2022/11/13 07:43:03;;;;;;;26.45;19.25;;;;;;;22.12;62.90;101900.63;20961124;28;20040;-78
2022/11/13 07:53:09;;;;;;;26.88;20.40;;;;;;;22.14;62.15;101910.16;20988045;28;20075;-79
2022/11/13 08:03:15;;;;;;;27.63;20.45;;;;;;;22.17;61.41;101901.22;21006068;28;20391;-79
2022/11/13 08:13:15;;;;;;;26.70;20.23;;;;;;;22.19;60.97;101905.47;21011230;28;20044;-80
2022/11/13 08:23:16;;;;;;;24.83;19.60;;;;;;;22.18;60.63;101903.75;20992976;28;20105;-79
2022/11/13 08:33:16;;;;;;;24.83;19.02;;;;;;;22.20;60.62;101904.53;20987655;28;20069;-75
2022/11/13 08:43:18;;;;;;;25.20;19.27;;;;;;;22.21;60.72;101897.47;20987712;28;20091;-77
2022/11/13 08:53:19;;;;;;;22.33;17.73;;;;;;;22.22;59.92;101901.81;20992379;28;20028;-78
2022/11/13 09:03:19;;;;;;;21.65;16.38;;;;;;;22.22;60.27;101894.72;20993893;28;20072;-77
2022/11/13 09:13:20;;;;;;;21.30;16.67;;;;;;;22.22;59.97;101894.72;20989738;28;20149;-76
2022/11/13 09:23:20;;;;;;;23.23;14.82;;;;;;;22.01;55.48;101898.63;21014564;28;20383;-78
2022/11/13 09:33:23;;;;;;;22.67;13.65;;;;;;;22.05;56.86;101897.50;21002122;28;20039;-81
2022/11/13 09:43:32;;;;;;;26.38;12.60;;;;;;;22.08;57.65;101868.28;20989910;28;20124;-77
2022/11/13 09:53:35;;;;;;;20.00;12.60;;;;;;;22.12;57.44;101874.22;20976166;28;20414;-76
2022/11/13 10:03:43;;;;;;;23.45;10.90;;;;;;;22.15;57.40;101853.81;20955469;28;20056;-75
2022/11/13 10:13:50;;;;;;;19.42;10.73;;;;;;;22.14;56.95;101844.22;20953537;28;20047;-76
2022/11/13 10:23:55;;;;;;;15.68;10.60;;;;;;;22.15;57.46;101823.94;20974546;28;20461;-74
2022/11/13 10:33:56;;;;;;;19.58;12.70;;;;;;;22.20;58.70;101812.19;20965040;28;20037;-75
2022/11/13 10:44:04;;;;;;;27.85;15.65;;;;;;;21.67;51.71;101801.19;20991553;28;20055;-75
2022/11/13 10:54:26;;;;;;;27.33;17.20;;;;;;;21.82;54.54;101793.31;20985832;28;20046;-77
2022/11/13 11:04:27;;;;;;;29.23;19.30;;;;;;;21.99;58.67;101773.88;20972580;28;20456;-76
2022/11/13 11:14:34;;;;;;;29.05;19.00;;;;;;;22.06;59.67;101768.16;21005450;28;20048;-77
2022/11/13 11:24:39;;;;;;;40.08;20.30;;;;;;;22.15;60.52;101752.72;21002481;28;20044;-78
2022/11/13 11:34:45;;;;;;;79.13;28.27;;;;;;;22.25;63.09;101743.28;20998993;28;20375;-77
2022/11/13 11:45:04;;;;;;;60.42;23.15;;;;;;;22.32;62.71;101739.34;20990433;28;20433;-81
2022/11/13 11:55:30;;;;;;;51.55;22.45;;;;;;;22.45;62.23;101718.38;21013078;28;20040;-77
2022/11/13 12:05:44;;;;;;;45.13;18.88;;;;;;;22.55;61.56;101714.19;20995260;28;20145;-77
2022/11/13 12:15:47;;;;;;;46.78;18.25;;;;;;;22.66;61.33;101697.69;20972711;28;20078;-76
2022/11/13 12:26:19;;;;;;;35.67;18.45;;;;;;;22.77;60.87;101683.81;20970624;28;20050;-74
2022/11/13 12:36:20;;;;;;;39.63;18.38;;;;;;;22.87;60.80;101673.50;20945384;28;20048;-77
2022/11/13 12:46:21;;;;;;;41.05;17.23;;;;;;;22.94;60.24;101653.69;20947500;28;20047;-77
2022/11/13 12:56:26;;;;;;;28.38;14.90;;;;;;;23.01;60.12;101636.47;20909246;28;20055;-77
2022/11/13 13:06:57;;;;;;;35.65;15.48;;;;;;;23.03;59.17;101629.31;20966488;28;20049;-77
2022/11/13 13:17:16;;;;;;;24.43;13.70;;;;;;;23.07;59.29;101614.09;21013161;28;20123;-82
2022/11/13 13:27:28;;;;;;;26.83;14.48;;;;;;;23.10;59.08;101613.06;21013711;28;20795;-82
2022/11/13 13:37:58;;;;;;;22.83;13.38;;;;;;;23.07;59.17;101608.81;21004261;28;20036;-81
2022/11/13 13:47:59;;;;;;;24.25;14.00;;;;;;;23.02;59.22;101609.13;20998091;28;20040;-79
2022/11/13 13:58:14;;;;;;;26.97;14.57;;;;;;;23.02;59.01;101602.97;21013392;28;20031;-78
2022/11/13 14:08:23;;;;;;;23.77;14.73;;;;;;;22.98;59.63;101588.28;21006122;28;20712;-79
2022/11/13 14:18:26;;;;;;;22.63;13.23;;;;;;;22.97;59.76;101597.16;21006264;28;20033;-77
2022/11/13 14:28:30;;;;;;;;;;;;;;;22.94;59.60;101584.16;20982034;28;20047;-79
2022/11/13 14:38:35;;;;;;;22.02;13.10;;;;;;;22.90;59.49;101582.66;20951704;28;19981;-79
2022/11/13 14:48:36;;;;;;;22.30;12.55;;;;;;;22.85;60.06;101582.94;20991421;28;20182;-78
2022/11/13 14:58:46;;;;;;;20.38;13.15;;;;;;;22.80;60.18;101582.41;21009150;28;20047;-80
2022/11/13 15:08:48;;;;;;;22.60;12.98;;;;;;;22.69;58.03;101577.84;20967006;28;20090;-75
2022/11/13 15:18:57;;;;;;;20.63;13.20;;;;;;;22.78;59.93;101571.13;21003989;28;20040;-77
2022/11/13 15:28:58;;;;;;;18.83;13.05;;;;;;;22.82;61.49;101567.31;20999836;28;20044;-77
2022/11/13 15:38:58;;;;;;;21.60;12.27;;;;;;;22.89;62.83;101570.41;20967726;28;20056;-77
2022/11/13 15:48:59;;;;;;;18.35;10.98;;;;;;;22.87;62.15;101570.50;20917977;28;20114;-78
2022/11/13 15:58:59;;;;;;;19.67;11.23;;;;;;;22.86;61.31;101558.25;20985106;28;24120;-79
2022/11/13 16:09:01;;;;;;;19.80;10.80;;;;;;;22.84;60.90;101576.00;20962514;28;20133;-75
2022/11/13 16:19:02;;;;;;;19.00;11.80;;;;;;;22.78;60.91;101566.69;21011558;28;20051;-75
2022/11/13 16:29:18;;;;;;;21.77;11.93;;;;;;;22.76;61.18;101563.28;21008189;27;20044;-75
2022/11/13 16:39:18;;;;;;;18.17;11.93;;;;;;;22.72;61.00;101545.97;21011170;28;20040;-75
2022/11/13 16:49:19;;;;;;;19.85;11.88;;;;;;;22.73;61.29;101557.34;20979141;28;20047;-76
2022/11/13 16:59:19;;;;;;;19.90;13.48;;;;;;;22.77;62.09;101554.41;20986027;28;20770;-75
2022/11/13 17:09:19;;;;;;;29.60;16.75;;;;;;;22.82;62.48;101547.03;20982792;27;20402;-76
2022/11/13 17:19:20;;;;;;;27.30;17.65;;;;;;;22.86;61.89;101552.97;20980432;28;20051;-76
2022/11/13 17:29:20;;;;;;;82.88;57.15;;;;;;;22.90;62.01;101550.97;20990839;28;20044;-76
2022/11/13 17:39:20;;;;;;;74.50;55.35;;;;;;;22.91;62.11;101542.97;20993854;28;20043;-75
2022/11/13 17:49:21;;;;;;;69.15;50.92;;;;;;;22.91;61.70;101528.91;20987279;28;20058;-76
2022/11/13 17:59:21;;;;;;;61.38;47.13;;;;;;;22.92;61.41;101535.88;20992653;28;20032;-75
2022/11/13 18:09:22;;;;;;;60.22;44.45;;;;;;;22.90;61.17;101532.47;20996355;28;20418;-77
2022/11/13 18:19:22;;;;;;;55.22;40.30;;;;;;;22.88;61.18;101543.16;20985965;28;20120;-77
2022/11/13 18:29:22;;;;;;;55.85;37.72;;;;;;;22.89;61.13;101541.34;20989455;28;20040;-76
2022/11/13 18:39:23;;;;;;;47.70;32.53;;;;;;;22.84;60.88;101553.06;21001436;28;20036;-83
2022/11/13 18:49:23;;;;;;;40.00;29.75;;;;;;;22.81;60.52;101557.72;21003119;28;20037;-78
2022/11/13 18:59:24;;;;;;;43.35;29.90;;;;;;;22.74;60.40;101556.41;20981051;28;20403;-76
2022/11/13 19:09:24;;;;;;;38.03;26.85;;;;;;;22.70;60.26;101558.41;20961578;28;20044;-77
2022/11/13 19:19:24;;;;;;;42.80;24.27;;;;;;;22.68;60.39;101558.53;21001984;28;20035;-76
2022/11/13 19:29:26;;;;;;;32.20;23.17;;;;;;;22.58;60.50;101554.78;20991239;28;20055;-75
2022/11/13 19:39:26;;;;;;;29.20;21.17;;;;;;;22.52;60.43;101547.25;20983100;28;20510;-75
2022/11/13 19:49:26;;;;;;;27.27;19.92;;;;;;;22.50;60.60;101546.53;21002204;28;20071;-75
2022/11/13 19:59:27;;;;;;;25.98;17.48;;;;;;;22.43;60.65;101553.97;21006921;28;20036;-77
2022/11/13 20:09:27;;;;;;;25.85;17.50;;;;;;;22.33;58.56;101571.31;21006174;28;20098;-77
2022/11/13 20:19:28;;;;;;;21.73;15.73;;;;;;;22.23;58.66;101565.78;21012222;28;20036;-76
2022/11/13 20:29:33;;;;;;;20.45;14.57;;;;;;;22.21;59.08;101570.31;21019227;28;20041;-77
2022/11/13 20:39:33;;;;;;;19.73;14.35;;;;;;;22.15;59.62;101555.69;21013175;28;20056;-76
2022/11/13 20:49:34;;;;;;;16.65;12.82;;;;;;;22.12;59.56;101555.91;21020226;28;20040;-77
2022/11/13 20:59:34;;;;;;;20.48;12.75;;;;;;;22.08;59.75;101557.03;21025728;28;20043;-77
2022/11/13 21:09:35;;;;;;;16.02;12.02;;;;;;;22.07;59.59;101558.00;21026980;28;20072;-77
2022/11/13 21:19:36;;;;;;;15.98;11.13;;;;;;;22.04;59.42;101551.09;21038873;28;20048;-77
2022/11/13 21:29:36;;;;;;;14.38;11.38;;;;;;;22.00;59.47;101559.31;20995364;28;20064;-77
2022/11/13 21:39:37;;;;;;;15.60;11.15;;;;;;;21.98;59.46;101551.47;20951906;28;20429;-76
2022/11/13 21:49:38;;;;;;;14.57;10.57;;;;;;;21.96;59.56;101547.25;20971045;28;20054;-77
2022/11/13 21:59:38;;;;;;;13.00;10.50;;;;;;;21.95;59.57;101546.41;21017910;28;20071;-77
2022/11/13 22:09:39;;;;;;;13.50;9.52;;;;;;;21.91;59.55;101542.28;21014817;28;20046;-77
2022/11/13 22:19:39;;;;;;;12.90;9.82;;;;;;;21.88;59.89;101530.09;21003477;28;20032;-77
2022/11/13 22:29:39;;;;;;;13.32;10.07;;;;;;;21.90;59.75;101524.75;21027493;28;20143;-78
2022/11/13 22:39:41;;;;;;;12.80;9.07;;;;;;;21.86;59.36;101517.97;21038418;28;20051;-77
2022/11/13 22:49:41;;;;;;;13.02;9.00;;;;;;;21.83;59.64;101519.00;21010157;28;20040;-76
2022/11/13 22:59:42;;;;;;;10.15;8.80;;;;;;;21.82;59.62;101509.41;21006359;28;20351;-76
2022/11/13 23:09:42;;;;;;;10.40;8.85;;;;;;;21.71;59.68;101494.25;21013332;28;20045;-76
2022/11/13 23:19:42;;;;;;;9.65;8.00;;;;;;;21.68;59.83;101478.63;21021595;28;20068;-76
2022/11/13 23:29:43;;;;;;;11.07;8.43;;;;;;;21.68;59.40;101460.19;20995796;28;20396;-77
2022/11/13 23:39:43;;;;;;;10.27;8.05;;;;;;;21.69;59.46;101464.53;21019539;28;20040;-76
2022/11/13 23:49:43;;;;;;;9.90;7.53;;;;;;;21.68;59.47;101470.72;20994907;28;20047;-76
2022/11/13 23:59:44;;;;;;;10.05;8.10;;;;;;;21.67;59.75;101478.75;21006388;28;20487;-76
